createdAt,value
2023-05-25T00:02:28.636Z,19.85
2023-05-25T00:07:30.753Z,25.15
2023-05-25T00:12:31.593Z,15.65
2023-05-25T00:17:32.375Z,19.20
2023-05-25T00:22:34.667Z,17.65
2023-05-25T00:27:35.422Z,14.02
2023-05-25T00:32:36.151Z,20.17
2023-05-25T00:37:38.192Z,17.60
2023-05-25T00:42:39.963Z,15.48
2023-05-25T00:47:41.460Z,18.15
2023-05-25T00:52:43.861Z,18.05
2023-05-25T00:57:48.170Z,20.45
2023-05-25T01:02:53.297Z,32.45
2023-05-25T01:07:57.070Z,24.02
2023-05-25T01:13:00.662Z,13.00
2023-05-25T01:18:03.631Z,17.50
2023-05-25T01:23:13.804Z,21.75
2023-05-25T01:28:19.500Z,19.20
2023-05-25T01:33:22.037Z,19.00
2023-05-25T01:38:24.087Z,21.77
2023-05-25T01:43:24.890Z,20.77
2023-05-25T01:48:35.881Z,19.80
2023-05-25T01:53:44.728Z,22.05
2023-05-25T01:58:50.354Z,21.73
2023-05-25T02:03:51.515Z,16.25
2023-05-25T02:08:53.565Z,17.60
2023-05-25T02:13:54.390Z,18.30
2023-05-25T02:18:58.070Z,19.83
2023-05-25T02:24:01.379Z,20.30
2023-05-25T02:29:02.224Z,18.58
2023-05-25T02:34:03.132Z,15.25
2023-05-25T02:39:05.533Z,16.65
2023-05-25T02:44:06.650Z,18.52
2023-05-25T02:49:07.511Z,22.13
2023-05-25T02:54:12.845Z,21.95
2023-05-25T02:59:13.697Z,13.75
2023-05-25T03:04:14.391Z,22.25
2023-05-25T03:09:16.536Z,23.63
2023-05-25T03:14:18.949Z,18.20
2023-05-25T03:19:28.065Z,15.25
2023-05-25T03:24:30.123Z,23.55
2023-05-25T03:29:34.234Z,16.98
2023-05-25T03:34:36.291Z,19.52
2023-05-25T03:39:40.020Z,15.68
2023-05-25T03:44:41.362Z,22.42
2023-05-25T03:49:42.881Z,20.65
2023-05-25T03:54:45.014Z,15.32
2023-05-25T03:59:45.767Z,12.88
2023-05-25T04:04:46.534Z,14.90
2023-05-25T04:09:48.611Z,16.23
2023-05-25T04:14:51.136Z,14.40
2023-05-25T04:19:52.703Z,19.52
2023-05-25T04:24:56.446Z,20.17
2023-05-25T04:29:57.485Z,14.35
2023-05-25T04:35:20.873Z,13.40
2023-05-25T04:40:24.588Z,14.15
2023-05-25T04:45:25.779Z,12.93
2023-05-25T04:50:26.933Z,17.27
2023-05-25T04:55:32.170Z,14.90
2023-05-25T05:00:34.323Z,17.88
2023-05-25T05:05:36.917Z,20.25
2023-05-25T05:10:43.511Z,18.13
2023-05-25T05:15:45.103Z,14.45
2023-05-25T05:20:46.102Z,15.07
2023-05-25T05:25:48.193Z,18.65
2023-05-25T05:30:50.035Z,18.25
2023-05-25T05:35:52.451Z,15.73
2023-05-25T05:40:57.929Z,15.43
2023-05-25T05:45:58.718Z,12.57
2023-05-25T05:50:59.565Z,16.23
2023-05-25T05:56:01.948Z,14.95
2023-05-25T06:01:03.393Z,17.70
2023-05-25T06:06:04.869Z,13.48
2023-05-25T06:11:08.351Z,18.05
2023-05-25T06:16:10.158Z,12.55
2023-05-25T06:21:13.022Z,13.77
2023-05-25T06:26:15.262Z,13.68
2023-05-25T06:31:16.299Z,13.88
2023-05-25T06:36:17.334Z,17.17
2023-05-25T06:41:20.428Z,17.13
2023-05-25T06:46:22.422Z,14.10
2023-05-25T06:51:23.387Z,14.13
2023-05-25T06:56:26.331Z,16.95
2023-05-25T07:01:27.073Z,14.45
2023-05-25T07:06:27.746Z,14.80
2023-05-25T07:11:29.755Z,15.43
2023-05-25T07:16:31.979Z,20.30
2023-05-25T07:21:33.602Z,19.92
2023-05-25T07:26:36.503Z,20.27
2023-05-25T07:31:37.485Z,12.23
2023-05-25T07:36:38.317Z,15.30
2023-05-25T07:41:40.765Z,14.20
2023-05-25T07:46:41.483Z,18.85
2023-05-25T07:51:42.304Z,15.00
2023-05-25T07:56:44.388Z,17.17
2023-05-25T08:01:45.231Z,16.48
2023-05-25T08:06:46.379Z,16.60
2023-05-25T08:11:48.444Z,8.13
2023-05-25T08:16:49.350Z,14.15
2023-05-25T08:21:50.118Z,10.30
2023-05-25T08:26:54.381Z,19.63
2023-05-25T08:31:57.964Z,17.95
2023-05-25T08:36:58.894Z,12.30
2023-05-25T08:42:01.126Z,15.73
2023-05-25T08:47:06.451Z,14.15
2023-05-25T08:52:11.603Z,16.80
2023-05-25T08:57:18.188Z,10.75
2023-05-25T09:02:28.029Z,8.57
2023-05-25T09:07:29.089Z,13.77
2023-05-25T09:12:31.786Z,17.52
2023-05-25T09:17:32.568Z,14.82
2023-05-25T09:22:33.283Z,12.70
2023-05-25T09:27:38.110Z,9.35
2023-05-25T09:32:39.143Z,12.93
2023-05-25T09:37:41.245Z,12.75
2023-05-25T09:42:43.499Z,12.50
2023-05-25T09:47:44.360Z,13.85
2023-05-25T09:52:45.177Z,8.20
2023-05-25T09:57:47.214Z,12.88
2023-05-25T10:02:47.961Z,8.38
2023-05-25T10:07:51.110Z,12.63
2023-05-25T10:12:55.368Z,12.10
2023-05-25T10:17:58.779Z,10.32
2023-05-25T10:23:05.829Z,10.52
2023-05-25T10:28:17.345Z,11.15
2023-05-25T10:33:18.395Z,13.05
2023-05-25T10:38:19.748Z,13.77
2023-05-25T10:43:24.493Z,14.02
2023-05-25T10:48:36.310Z,12.70
2023-05-25T10:53:37.166Z,7.22
2023-05-25T10:58:43.124Z,10.02
2023-05-25T11:03:50.037Z,8.73
2023-05-25T11:08:54.858Z,15.75
2023-05-25T11:13:56.861Z,13.10
2023-05-25T11:18:58.976Z,8.00
2023-05-25T11:24:02.823Z,7.47
2023-05-25T11:29:14.668Z,7.60
2023-05-25T11:34:15.590Z,9.88
2023-05-25T11:39:22.321Z,11.00
2023-05-25T11:44:29.365Z,8.13
2023-05-25T11:49:30.238Z,11.88
2023-05-25T11:54:31.533Z,12.45
2023-05-25T11:59:34.888Z,8.25
2023-05-25T12:04:35.833Z,10.23
2023-05-25T12:09:36.920Z,10.48
2023-05-25T12:14:48.333Z,10.75
2023-05-25T12:19:49.821Z,9.63
2023-05-25T12:24:50.867Z,7.05
2023-05-25T12:29:53.203Z,8.25
2023-05-25T12:35:03.682Z,9.00
2023-05-25T12:40:17.957Z,13.43
2023-05-25T12:45:20.132Z,11.98
2023-05-25T12:50:23.337Z,7.22
2023-05-25T12:55:29.285Z,9.90
2023-05-25T13:00:34.974Z,9.63
2023-05-25T13:05:37.549Z,9.20
2023-05-25T13:10:41.060Z,13.40
2023-05-25T13:15:43.321Z,8.43
2023-05-25T13:20:45.377Z,13.15
2023-05-25T13:25:48.167Z,8.23
2023-05-25T13:30:50.382Z,8.65
2023-05-25T13:35:59.082Z,9.35
2023-05-25T13:40:59.992Z,6.63
2023-05-25T13:46:02.452Z,9.45
2023-05-25T13:51:04.138Z,9.20
2023-05-25T13:56:04.910Z,10.43
2023-05-25T14:01:07.137Z,11.30
2023-05-25T14:06:09.307Z,10.27
2023-05-25T14:11:10.098Z,6.68
2023-05-25T14:16:12.214Z,11.02
2023-05-25T14:21:13.284Z,8.23
2023-05-25T14:26:13.973Z,7.38
2023-05-25T14:31:16.144Z,7.55
2023-05-25T14:36:16.858Z,9.23
2023-05-25T14:41:17.684Z,10.77
2023-05-25T14:46:19.739Z,11.25
2023-05-25T14:51:20.577Z,8.25
2023-05-25T14:56:23.083Z,6.97
2023-05-25T15:01:25.624Z,6.82
2023-05-25T15:06:26.458Z,6.43
2023-05-25T15:11:27.538Z,10.30
2023-05-25T15:16:29.661Z,9.60
2023-05-25T15:21:30.431Z,11.88
2023-05-25T15:26:31.125Z,14.27
2023-05-25T15:31:33.195Z,8.85
2023-05-25T15:36:33.931Z,10.13
2023-05-25T15:41:34.626Z,8.80
2023-05-25T15:46:36.879Z,9.35
2023-05-25T15:51:42.775Z,10.48
2023-05-25T15:56:43.525Z,10.55
2023-05-25T16:01:45.595Z,15.35
2023-05-25T16:06:48.491Z,9.73
2023-05-25T16:11:49.220Z,6.38
2023-05-25T16:16:51.334Z,10.95
2023-05-25T16:21:52.126Z,14.48
2023-05-25T16:26:53.138Z,10.25
2023-05-25T16:31:55.726Z,9.43
2023-05-25T16:36:56.484Z,11.43
2023-05-25T16:41:57.918Z,14.68
2023-05-25T16:46:59.940Z,13.05
2023-05-25T16:52:02.565Z,10.23
2023-05-25T16:57:03.310Z,7.95
2023-05-25T17:02:05.681Z,8.52
2023-05-25T17:07:06.404Z,15.40
2023-05-25T17:12:08.097Z,12.30
2023-05-25T17:17:10.170Z,7.97
2023-05-25T17:22:10.909Z,8.00
2023-05-25T17:27:11.691Z,8.20
2023-05-25T17:32:13.854Z,7.65
2023-05-25T17:37:14.734Z,10.63
2023-05-25T17:42:15.536Z,11.15
2023-05-25T17:47:17.914Z,10.40
2023-05-25T17:52:18.641Z,11.10
2023-05-25T17:57:19.334Z,12.40
2023-05-25T18:02:21.686Z,13.18
2023-05-25T18:07:22.504Z,13.98
2023-05-25T18:12:23.215Z,11.02
2023-05-25T18:17:25.232Z,8.68
2023-05-25T18:22:26.047Z,13.50
2023-05-25T18:27:26.776Z,11.05
2023-05-25T18:32:28.838Z,8.88
2023-05-25T18:37:34.125Z,10.75
2023-05-25T18:42:35.632Z,13.02
2023-05-25T18:47:37.815Z,11.35
2023-05-25T18:52:38.674Z,12.07
2023-05-25T18:57:39.417Z,11.82
2023-05-25T19:02:41.654Z,15.23
2023-05-25T19:07:54.760Z,14.25
2023-05-25T19:12:58.740Z,14.93
2023-05-25T19:18:03.517Z,10.98
2023-05-25T19:23:04.279Z,14.48
2023-05-25T19:28:05.012Z,8.63
2023-05-25T19:33:07.227Z,12.43
2023-05-25T19:38:08.866Z,10.63
2023-05-25T19:43:09.988Z,15.95
2023-05-25T19:48:12.053Z,14.05
2023-05-25T19:53:12.810Z,10.00
2023-05-25T19:58:13.552Z,12.10
2023-05-25T20:03:16.148Z,9.57
2023-05-25T20:08:16.996Z,9.05
2023-05-25T20:13:17.685Z,10.63
2023-05-25T20:18:19.848Z,11.05
2023-05-25T20:23:20.871Z,7.30
2023-05-25T20:28:21.596Z,15.57
2023-05-25T20:33:24.445Z,11.60
2023-05-25T20:38:25.136Z,8.82
2023-05-25T20:43:25.844Z,11.75
2023-05-25T20:48:27.900Z,11.32
2023-05-25T20:53:28.631Z,15.02
2023-05-25T20:58:29.330Z,14.02
2023-05-25T21:03:31.652Z,10.73
2023-05-25T21:08:32.925Z,16.55
2023-05-25T21:13:33.654Z,18.08
2023-05-25T21:18:35.753Z,9.30
2023-05-25T21:23:36.614Z,9.68
2023-05-25T21:28:37.332Z,9.75
2023-05-25T21:33:40.192Z,8.25
2023-05-25T21:38:40.936Z,9.30
2023-05-25T21:43:41.678Z,9.73
2023-05-25T21:48:43.811Z,13.93
2023-05-25T21:53:44.472Z,12.43
2023-05-25T21:58:45.247Z,13.48
2023-05-25T22:03:47.254Z,15.52
2023-05-25T22:08:48.086Z,12.85
2023-05-25T22:13:48.771Z,13.38
2023-05-25T22:18:50.871Z,11.52
2023-05-25T22:23:51.566Z,12.15
2023-05-25T22:28:52.294Z,16.17
2023-05-25T22:33:54.684Z,10.75
2023-05-25T22:38:55.443Z,13.45
2023-05-25T22:43:56.451Z,9.13
2023-05-25T22:48:58.644Z,16.88
2023-05-25T22:53:59.369Z,7.88
2023-05-25T22:59:00.039Z,8.63
2023-05-25T23:04:02.170Z,12.27
2023-05-25T23:09:03.080Z,12.88
2023-05-25T23:14:03.901Z,8.50
2023-05-25T23:19:06.202Z,12.52
2023-05-25T23:24:07.496Z,10.73
2023-05-25T23:29:08.285Z,10.23
2023-05-25T23:34:10.405Z,12.77
2023-05-25T23:39:11.212Z,10.52
2023-05-25T23:44:11.989Z,11.02
2023-05-25T23:49:14.124Z,11.00
2023-05-25T23:54:14.799Z,12.55
2023-05-25T23:59:15.995Z,12.10
